Time;durP1;ratioP1;P1;durP2;ratioP2;P2;SDS_P1;SDS_P2;PMS_P1;PMS_P2;Temp;Humidity;BMP_temperature;BMP_pressure;BME280_temperature;BME280_humidity;BME280_pressure;Samples;Min_cycle;Max_cycle;Signal;HPM_P1;HPM_P2
2023/03/30 00:00:22;;;;;;;10.10;9.80;;;11.50;99.90;;;;;;5096014;28;20268;-84
2023/03/30 00:02:52;;;;;;;10.30;10.00;;;11.50;99.90;;;;;;5088227;28;20238;-83
2023/03/30 00:05:22;;;;;;;10.50;10.20;;;11.50;99.90;;;;;;5088261;28;20230;-84
2023/03/30 00:07:50;;;;;;;10.60;10.30;;;11.50;99.90;;;;;;5088273;28;20300;-84
2023/03/30 00:10:19;;;;;;;10.50;10.20;;;11.50;99.90;;;;;;5088220;28;20230;-84
2023/03/30 00:12:58;;;;;;;10.47;10.17;;;11.50;99.90;;;;;;5087826;28;20237;-83
2023/03/30 00:15:27;;;;;;;10.60;10.30;;;11.40;99.90;;;;;;5088436;28;20236;-84
2023/03/30 00:17:57;;;;;;;10.40;10.10;;;11.40;99.90;;;;;;5091801;28;20282;-83
2023/03/30 00:20:26;;;;;;;10.50;10.20;;;11.40;99.90;;;;;;5094143;28;20238;-84
2023/03/30 00:22:55;;;;;;;10.37;10.07;;;11.40;99.90;;;;;;5088962;28;20289;-85
2023/03/30 00:25:25;;;;;;;10.40;10.10;;;11.40;99.90;;;;;;5088566;28;20230;-83
2023/03/30 00:28:03;;;;;;;10.30;10.00;;;11.40;99.90;;;;;;5107904;28;20276;-84
2023/03/30 00:30:32;;;;;;;10.40;10.10;;;11.40;99.90;;;;;;5099525;28;20244;-84
2023/03/30 00:33:02;;;;;;;10.30;10.00;;;11.40;99.90;;;;;;5108439;28;20221;-83
2023/03/30 00:35:31;;;;;;;10.27;9.97;;;11.40;99.90;;;;;;5108168;28;20241;-84
2023/03/30 00:38:02;;;;;;;10.50;10.20;;;11.40;99.90;;;;;;5100813;28;20241;-84
2023/03/30 00:40:31;;;;;;;10.27;9.97;;;11.40;99.90;;;;;;5095113;28;20261;-84
2023/03/30 00:43:08;;;;;;;10.40;10.10;;;11.50;99.90;;;;;;5084490;28;20246;-84
2023/03/30 00:45:39;;;;;;;10.60;10.30;;;11.50;99.90;;;;;;5087607;28;20233;-83
2023/03/30 00:48:11;;;;;;;10.43;10.13;;;11.50;99.90;;;;;;5107074;28;20237;-81
2023/03/30 00:50:45;;;;;;;10.60;10.30;;;11.50;99.90;;;;;;5106885;28;20236;-84
2023/03/30 00:53:17;;;;;;;10.77;10.47;;;11.50;99.90;;;;;;5106916;28;20229;-84
2023/03/30 00:55:46;;;;;;;10.30;10.00;;;11.50;99.90;;;;;;5107072;28;20234;-84
2023/03/30 00:58:23;;;;;;;10.43;10.13;;;11.50;99.90;;;;;;5106749;28;20229;-84
2023/03/30 01:00:52;;;;;;;10.50;10.20;;;11.50;99.90;;;;;;5107463;28;20241;-84
2023/03/30 01:03:25;;;;;;;10.40;10.10;;;11.50;99.90;;;;;;5107188;28;20237;-84
2023/03/30 01:05:53;;;;;;;10.23;9.93;;;11.50;99.90;;;;;;5100833;28;20223;-83
2023/03/30 01:08:22;;;;;;;10.50;10.20;;;11.50;99.90;;;;;;5103447;28;20225;-84
2023/03/30 01:10:51;;;;;;;10.40;10.10;;;11.40;99.90;;;;;;5107880;28;20233;-83
2023/03/30 01:13:22;;;;;;;10.43;10.13;;;11.50;99.90;;;;;;5107291;28;20279;-83
2023/03/30 01:16:08;;;;;;;10.30;10.00;;;11.50;99.90;;;;;;5107460;28;20240;-83
2023/03/30 01:18:54;;;;;;;10.30;10.00;;;11.50;99.90;;;;;;5086657;28;20240;-84
2023/03/30 01:22:19;;;;;;;10.03;9.73;;;11.50;99.90;;;;;;5086149;28;20373;-83
2023/03/30 01:25:20;;;;;;;10.07;9.77;;;11.50;99.90;;;;;;5086611;28;20218;-84
2023/03/30 01:28:26;;;;;;;10.10;9.80;;;11.50;99.90;;;;;;5086745;28;20218;-85
2023/03/30 01:31:40;;;;;;;10.00;9.70;;;11.40;99.90;;;;;;5088353;28;20240;-84
2023/03/30 01:34:52;;;;;;;10.30;10.00;;;11.40;99.90;;;;;;5086627;28;20256;-84
2023/03/30 01:38:07;;;;;;;9.90;9.60;;;11.30;99.90;;;;;;5094747;28;20225;-83
2023/03/30 01:40:43;;;;;;;9.60;9.30;;;11.30;99.90;;;;;;5087664;28;20260;-85
2023/03/30 01:43:21;;;;;;;9.70;9.40;;;11.20;99.90;;;;;;5087871;28;20249;-84
2023/03/30 01:46:00;;;;;;;9.70;9.40;;;11.20;99.90;;;;;;5087775;28;20293;-84
2023/03/30 01:48:44;;;;;;;9.97;9.67;;;11.10;99.90;;;;;;5069343;28;20218;-85
2023/03/30 01:51:29;;;;;;;10.03;9.73;;;11.10;99.90;;;;;;5086742;28;20233;-85
2023/03/30 01:54:06;;;;;;;9.80;9.50;;;11.20;99.90;;;;;;5087350;28;20250;-85
2023/03/30 01:56:43;;;;;;;9.83;9.53;;;11.20;99.90;;;;;;5089017;28;20297;-85
2023/03/30 01:59:22;;;;;;;9.83;9.53;;;11.10;99.90;;;;;;5086833;28;20229;-84
2023/03/30 02:01:59;;;;;;;10.00;9.70;;;11.20;99.90;;;;;;5087350;28;20297;-85
2023/03/30 02:04:30;;;;;;;10.10;9.80;;;11.20;99.90;;;;;;5086870;28;20242;-83
2023/03/30 02:07:07;;;;;;;10.00;9.70;;;11.20;99.90;;;;;;5087256;28;20258;-85
2023/03/30 02:09:38;;;;;;;10.00;9.70;;;11.20;99.90;;;;;;5086165;28;20230;-84
2023/03/30 02:12:15;;;;;;;9.83;9.53;;;11.20;99.90;;;;;;5085967;28;20770;-84
2023/03/30 02:14:44;;;;;;;9.67;9.37;;;11.30;99.90;;;;;;5086255;28;20301;-81
2023/03/30 02:17:17;;;;;;;9.70;9.40;;;11.30;99.90;;;;;;5086130;28;20770;-85
2023/03/30 02:19:46;;;;;;;10.00;9.70;;;11.40;99.90;;;;;;5086683;28;20237;-83
2023/03/30 02:22:15;;;;;;;10.00;9.70;;;11.40;99.90;;;;;;5084841;28;20241;-83
2023/03/30 02:24:45;;;;;;;10.00;9.70;;;11.50;99.90;;;;;;5086495;28;20242;-83
2023/03/30 02:27:14;;;;;;;9.93;9.63;;;11.50;99.90;;;;;;5085499;28;20294;-82
2023/03/30 02:35:35;;;;;;;9.70;9.40;;;11.70;99.90;;;;;;5082053;28;20241;-85
2023/03/30 02:38:48;;;;;;;9.70;9.40;;;11.80;99.90;;;;;;5085333;28;20246;-83
2023/03/30 02:41:34;;;;;;;9.57;9.27;;;11.90;99.90;;;;;;5086080;28;20238;-83
2023/03/30 02:44:21;;;;;;;9.50;9.20;;;12.00;99.90;;;;;;5085905;28;20222;-83
2023/03/30 02:47:07;;;;;;;9.47;9.17;;;12.00;99.90;;;;;;5088519;28;20718;-83
2023/03/30 02:49:54;;;;;;;9.50;9.20;;;12.10;99.90;;;;;;5087292;28;20281;-83
2023/03/30 02:52:41;;;;;;;9.50;9.20;;;12.10;99.90;;;;;;5087096;28;20229;-83
2023/03/30 02:55:21;;;;;;;9.67;9.37;;;12.10;99.90;;;;;;5086548;28;20317;-83
2023/03/30 02:58:07;;;;;;;9.77;9.47;;;12.10;99.90;;;;;;5086507;28;20317;-83
2023/03/30 03:00:44;;;;;;;9.57;9.27;;;12.10;99.90;;;;;;5086958;28;20250;-85
2023/03/30 03:03:17;;;;;;;9.77;9.47;;;12.10;99.90;;;;;;5085953;28;20229;-83
2023/03/30 03:05:45;;;;;;;9.90;9.60;;;12.20;99.90;;;;;;5086739;28;20250;-83
2023/03/30 03:08:22;;;;;;;9.57;9.27;;;12.20;99.90;;;;;;5086131;28;20289;-83
2023/03/30 03:10:51;;;;;;;9.63;9.33;;;12.20;99.90;;;;;;5085488;28;20230;-83
2023/03/30 03:13:20;;;;;;;9.50;9.20;;;12.20;99.90;;;;;;5084056;28;20230;-83
2023/03/30 03:16:00;;;;;;;9.50;9.20;;;12.30;99.90;;;;;;5084111;28;20218;-84
2023/03/30 03:18:29;;;;;;;9.60;9.30;;;12.40;99.90;;;;;;5085834;28;20230;-83
2023/03/30 03:20:57;;;;;;;9.47;9.17;;;12.40;99.90;;;;;;5085987;28;20288;-84
2023/03/30 03:23:27;;;;;;;9.10;8.80;;;12.40;99.90;;;;;;5087085;28;20226;-83
2023/03/30 03:25:56;;;;;;;9.47;9.17;;;12.50;99.90;;;;;;5092293;28;20325;-84
2023/03/30 03:28:26;;;;;;;9.40;9.10;;;12.50;99.90;;;;;;5085199;28;20268;-84
2023/03/30 03:33:43;;;;;;;9.40;9.10;;;12.50;99.90;;;;;;5088986;28;20222;-84
2023/03/30 03:36:12;;;;;;;9.50;9.20;;;12.50;99.90;;;;;;5090427;28;20246;-84
2023/03/30 03:38:41;;;;;;;9.47;9.17;;;12.50;99.90;;;;;;5088279;28;20235;-84
2023/03/30 03:41:11;;;;;;;9.67;9.37;;;12.50;99.90;;;;;;5092121;28;20332;-83
2023/03/30 03:43:40;;;;;;;9.80;9.50;;;12.60;99.90;;;;;;5096002;28;20242;-85
2023/03/30 03:46:22;;;;;;;9.90;9.60;;;12.50;99.90;;;;;;5098545;28;20222;-83
2023/03/30 03:48:49;;;;;;;9.90;9.60;;;12.50;99.90;;;;;;5094747;28;20241;-83
2023/03/30 03:51:17;;;;;;;9.63;9.33;;;12.40;99.90;;;;;;5091929;28;20265;-83
2023/03/30 03:53:50;;;;;;;9.63;9.33;;;12.50;99.90;;;;;;5092932;28;20252;-83
2023/03/30 03:56:18;;;;;;;9.70;9.40;;;12.40;99.90;;;;;;5097113;28;20274;-82
2023/03/30 03:58:48;;;;;;;9.97;9.67;;;12.40;99.90;;;;;;5098074;28;20321;-83
2023/03/30 04:01:20;;;;;;;9.87;9.57;;;12.40;99.90;;;;;;5096282;28;20268;-83
2023/03/30 04:03:47;;;;;;;9.80;9.50;;;12.40;99.90;;;;;;5093945;28;20222;-84
2023/03/30 04:06:16;;;;;;;9.90;9.60;;;12.40;99.90;;;;;;5092095;28;20221;-84
2023/03/30 04:08:46;;;;;;;9.47;9.17;;;12.40;99.90;;;;;;5093817;28;20233;-83
2023/03/30 04:11:15;;;;;;;9.70;9.40;;;12.40;99.90;;;;;;5094716;28;20230;-83
2023/03/30 04:13:44;;;;;;;9.83;9.53;;;12.50;99.90;;;;;;5097936;28;20254;-84
2023/03/30 04:16:14;;;;;;;9.77;9.47;;;12.50;99.90;;;;;;5098062;28;20218;-83
2023/03/30 04:18:52;;;;;;;9.50;9.20;;;12.60;99.90;;;;;;5097663;28;20334;-84
2023/03/30 04:21:22;;;;;;;9.70;9.40;;;12.60;99.90;;;;;;5099715;28;20253;-83
2023/03/30 04:23:51;;;;;;;9.67;9.37;;;12.70;99.90;;;;;;5101018;28;20289;-83
2023/03/30 04:26:21;;;;;;;9.70;9.40;;;12.70;99.90;;;;;;5101430;28;20222;-83
2023/03/30 04:28:52;;;;;;;9.67;9.37;;;12.80;99.90;;;;;;5102052;28;20252;-82
2023/03/30 04:31:21;;;;;;;9.27;8.97;;;12.90;99.90;;;;;;5101534;28;20218;-83
2023/03/30 04:33:53;;;;;;;9.30;9.00;;;13.00;99.90;;;;;;5101608;28;20218;-83
2023/03/30 04:36:21;;;;;;;9.93;9.63;;;13.00;99.90;;;;;;5101626;28;20240;-81
2023/03/30 04:38:57;;;;;;;9.53;9.23;;;13.10;99.90;;;;;;5100796;28;20261;-82
2023/03/30 04:44:12;;;;;;;9.40;9.10;;;13.10;99.90;;;;;;5097620;28;20218;-81
2023/03/30 04:46:42;;;;;;;9.50;9.20;;;13.10;99.90;;;;;;5098681;28;20233;-84
2023/03/30 04:49:13;;;;;;;9.37;9.07;;;13.10;99.90;;;;;;5099594;28;20218;-83
2023/03/30 04:51:41;;;;;;;9.60;9.30;;;13.10;99.90;;;;;;5101118;28;20230;-83
2023/03/30 04:54:11;;;;;;;9.50;9.20;;;13.10;99.90;;;;;;5100718;28;20234;-83
2023/03/30 04:56:40;;;;;;;9.70;9.40;;;13.00;99.90;;;;;;5099813;28;20358;-84
2023/03/30 04:59:09;;;;;;;9.37;9.07;;;13.00;99.90;;;;;;5091921;28;20230;-84
2023/03/30 05:01:39;;;;;;;9.40;9.10;;;13.00;99.90;;;;;;5087329;28;20250;-82
2023/03/30 05:04:08;;;;;;;9.30;9.00;;;13.00;99.90;;;;;;5087193;28;20230;-84
2023/03/30 05:06:48;;;;;;;9.73;9.43;;;13.00;99.90;;;;;;5088017;28;20245;-83
2023/03/30 05:09:16;;;;;;;9.90;9.60;;;12.90;99.90;;;;;;5087142;28;20230;-84
2023/03/30 05:11:45;;;;;;;9.90;9.60;;;12.90;99.90;;;;;;5087414;28;20330;-84
2023/03/30 05:14:15;;;;;;;10.00;9.70;;;12.90;99.90;;;;;;5087629;28;20245;-83
2023/03/30 05:16:44;;;;;;;9.90;9.60;;;12.90;99.90;;;;;;5087081;28;20234;-84
2023/03/30 05:19:14;;;;;;;9.80;9.50;;;13.00;99.90;;;;;;5086960;28;20237;-83
2023/03/30 05:21:45;;;;;;;9.90;9.60;;;13.00;99.90;;;;;;5086919;28;20242;-84
2023/03/30 05:24:13;;;;;;;9.43;9.13;;;13.00;99.90;;;;;;5086762;28;20270;-84
2023/03/30 05:26:42;;;;;;;9.80;9.50;;;13.00;99.90;;;;;;5087933;28;20290;-84
2023/03/30 05:29:11;;;;;;;9.87;9.57;;;13.00;99.90;;;;;;5087386;28;20234;-84
2023/03/30 05:31:40;;;;;;;9.30;9.00;;;13.00;99.90;;;;;;5086922;28;20288;-84
2023/03/30 05:34:10;;;;;;;9.40;9.10;;;13.00;99.90;;;;;;5087595;28;20278;-84
2023/03/30 05:36:39;;;;;;;9.40;9.10;;;13.00;99.90;;;;;;5088002;28;20228;-84
2023/03/30 05:39:17;;;;;;;9.50;9.20;;;12.90;99.90;;;;;;5098767;28;20275;-84
2023/03/30 05:41:49;;;;;;;9.80;9.50;;;12.80;99.90;;;;;;5107303;28;20245;-83
2023/03/30 05:44:17;;;;;;;10.07;9.77;;;12.70;99.90;;;;;;5104950;28;20260;-83
2023/03/30 05:46:46;;;;;;;9.57;9.27;;;12.70;99.90;;;;;;5106822;28;20238;-84
2023/03/30 05:49:14;;;;;;;9.60;9.30;;;12.70;99.90;;;;;;5106176;28;20270;-84
2023/03/30 05:54:37;;;;;;;9.50;9.20;;;12.70;99.90;;;;;;5087277;28;20222;-84
2023/03/30 05:57:05;;;;;;;9.40;9.10;;;12.60;99.90;;;;;;5095468;28;20209;-84
2023/03/30 05:59:32;;;;;;;9.43;9.13;;;12.60;99.90;;;;;;5087203;28;20252;-84
2023/03/30 06:02:02;;;;;;;9.43;9.13;;;12.50;99.90;;;;;;5088401;28;20297;-84
2023/03/30 06:04:32;;;;;;;9.27;8.97;;;12.50;99.90;;;;;;5086688;28;20238;-84
2023/03/30 06:07:01;;;;;;;9.30;9.00;;;12.40;99.90;;;;;;5086984;28;20222;-84
2023/03/30 06:09:41;;;;;;;9.23;8.93;;;12.30;99.90;;;;;;5087652;28;20225;-84
2023/03/30 06:12:09;;;;;;;8.90;8.70;;;12.20;99.90;;;;;;5105270;28;20261;-83
2023/03/30 06:14:38;;;;;;;9.00;8.70;;;12.10;99.90;;;;;;5091643;28;20229;-84
2023/03/30 06:17:10;;;;;;;8.83;8.60;;;12.10;99.90;;;;;;5088334;28;20245;-84
2023/03/30 06:19:39;;;;;;;9.20;8.90;;;12.20;99.90;;;;;;5089194;28;20222;-84
2023/03/30 06:22:06;;;;;;;9.10;8.80;;;12.30;99.90;;;;;;5088520;28;20233;-83
2023/03/30 06:24:38;;;;;;;8.73;8.53;;;12.30;99.90;;;;;;5087479;28;20280;-83
2023/03/30 06:27:06;;;;;;;9.03;8.73;;;12.30;99.90;;;;;;5087060;28;20250;-82
2023/03/30 06:29:35;;;;;;;9.00;8.70;;;12.20;99.90;;;;;;5084973;28;20241;-83
2023/03/30 06:32:05;;;;;;;9.20;8.90;;;12.10;99.90;;;;;;5084541;28;20409;-84
2023/03/30 06:34:33;;;;;;;9.00;8.70;;;12.10;99.90;;;;;;5088464;28;20222;-84
2023/03/30 06:37:03;;;;;;;8.80;8.60;;;12.20;99.90;;;;;;5088674;28;20230;-83
2023/03/30 06:39:36;;;;;;;8.77;8.57;;;12.20;99.90;;;;;;5086004;28;20230;-84
2023/03/30 06:42:11;;;;;;;8.50;8.30;;;12.10;99.90;;;;;;5085568;28;20237;-83
2023/03/30 06:44:40;;;;;;;8.17;7.97;;;12.10;99.90;;;;;;5097446;28;20229;-83
2023/03/30 06:47:09;;;;;;;8.13;7.93;;;12.00;99.90;;;;;;5104742;28;20281;-84
2023/03/30 06:49:39;;;;;;;8.23;8.03;;;11.90;99.90;;;;;;5104918;28;20254;-83
2023/03/30 06:52:09;;;;;;;8.00;7.80;;;11.90;99.90;;;;;;5105479;28;20283;-83
2023/03/30 06:54:38;;;;;;;7.93;7.73;;;11.90;99.90;;;;;;5097408;28;20233;-85
2023/03/30 06:57:09;;;;;;;7.90;7.70;;;11.90;99.90;;;;;;5105132;28;20316;-83
2023/03/30 06:59:37;;;;;;;7.80;7.60;;;11.80;99.90;;;;;;5105552;28;20221;-84
2023/03/30 07:02:06;;;;;;;7.90;7.70;;;11.80;99.90;;;;;;5104480;28;20241;-84
2023/03/30 07:04:36;;;;;;;7.87;7.67;;;11.80;99.90;;;;;;5097874;28;20244;-84
2023/03/30 07:07:05;;;;;;;7.73;7.53;;;11.70;99.90;;;;;;5105758;28;20213;-84
2023/03/30 07:09:34;;;;;;;7.63;7.43;;;11.70;99.90;;;;;;5109428;28;20225;-84
2023/03/30 07:12:04;;;;;;;7.30;7.10;;;11.70;99.90;;;;;;5110912;28;20234;-84
2023/03/30 07:14:36;;;;;;;7.40;7.20;;;11.70;99.90;;;;;;5112619;28;20236;-84
2023/03/30 07:17:03;;;;;;;7.70;7.50;;;11.70;99.90;;;;;;5111416;28;20252;-84
2023/03/30 07:19:33;;;;;;;7.90;7.70;;;11.60;99.90;;;;;;5110331;28;20253;-84
2023/03/30 07:22:02;;;;;;;7.70;7.50;;;11.70;99.90;;;;;;5109628;28;20236;-84
2023/03/30 07:24:32;;;;;;;7.70;7.50;;;11.60;99.90;;;;;;5108891;28;20233;-84
2023/03/30 07:27:00;;;;;;;7.53;7.33;;;11.60;99.90;;;;;;5108843;28;20217;-85
2023/03/30 07:29:30;;;;;;;7.63;7.43;;;11.70;99.90;;;;;;5109229;28;20229;-85
2023/03/30 07:32:00;;;;;;;7.50;7.30;;;11.70;99.90;;;;;;5108773;28;20243;-84
2023/03/30 07:34:30;;;;;;;7.80;7.60;;;11.70;99.90;;;;;;5107789;28;20268;-84
2023/03/30 07:36:58;;;;;;;7.83;7.63;;;11.70;99.90;;;;;;5108166;28;20205;-84
2023/03/30 07:39:28;;;;;;;7.80;7.60;;;11.80;99.90;;;;;;5109535;28;20287;-85
2023/03/30 07:41:57;;;;;;;7.90;7.70;;;11.80;99.90;;;;;;5106707;28;20727;-83
2023/03/30 07:44:28;;;;;;;7.60;7.40;;;11.80;99.90;;;;;;5107855;28;20324;-84
2023/03/30 07:46:56;;;;;;;7.50;7.30;;;11.80;99.90;;;;;;5108664;28;20228;-85
2023/03/30 07:49:26;;;;;;;7.63;7.43;;;11.90;99.90;;;;;;5108598;28;20297;-85
2023/03/30 07:51:57;;;;;;;8.00;7.80;;;11.90;99.90;;;;;;5109707;28;20229;-84
2023/03/30 07:54:26;;;;;;;7.80;7.60;;;11.90;99.90;;;;;;5108990;28;20229;-84
2023/03/30 07:56:56;;;;;;;7.70;7.50;;;11.90;99.90;;;;;;5105590;28;20225;-83
2023/03/30 07:59:26;;;;;;;7.53;7.33;;;11.80;99.90;;;;;;5104987;28;20230;-84
2023/03/30 08:01:55;;;;;;;7.60;7.40;;;11.80;99.90;;;;;;5108718;28;20363;-84
2023/03/30 08:04:26;;;;;;;7.60;7.40;;;11.80;99.90;;;;;;5109856;28;20289;-84
2023/03/30 08:06:54;;;;;;;7.50;7.30;;;11.90;99.90;;;;;;5109771;28;20233;-85
2023/03/30 08:09:23;;;;;;;7.60;7.40;;;11.90;99.90;;;;;;5105780;28;20253;-85
2023/03/30 08:11:53;;;;;;;7.60;7.40;;;12.00;99.90;;;;;;5107992;28;20972;-85
2023/03/30 08:14:23;;;;;;;7.47;7.27;;;12.00;99.90;;;;;;5109633;28;20233;-84
2023/03/30 08:16:52;;;;;;;7.40;7.20;;;12.00;99.90;;;;;;5106708;28;20226;-84
2023/03/30 08:19:21;;;;;;;7.40;7.20;;;12.00;99.90;;;;;;5102737;28;20237;-83
2023/03/30 08:21:53;;;;;;;7.67;7.47;;;11.90;99.90;;;;;;5090021;28;20233;-84
2023/03/30 08:24:21;;;;;;;7.80;7.60;;;12.00;99.90;;;;;;5097745;28;20245;-83
2023/03/30 08:26:49;;;;;;;7.80;7.60;;;11.90;99.90;;;;;;5112617;28;20216;-84
2023/03/30 08:29:19;;;;;;;7.40;7.20;;;11.90;99.90;;;;;;5118282;28;20233;-83
2023/03/30 08:31:48;;;;;;;7.80;7.60;;;11.90;99.90;;;;;;5108072;28;20245;-84
2023/03/30 08:34:18;;;;;;;7.50;7.30;;;11.80;99.90;;;;;;5109678;28;20205;-83
2023/03/30 08:36:46;;;;;;;7.20;7.00;;;11.80;99.90;;;;;;5110212;28;20233;-85
2023/03/30 08:39:32;;;;;;;7.40;7.20;;;11.80;99.90;;;;;;5111837;28;20373;-84
2023/03/30 08:42:13;;;;;;;7.27;7.07;;;11.90;99.90;;;;;;5114128;28;20293;-85
2023/03/30 08:44:43;;;;;;;7.10;6.90;;;11.90;99.90;;;;;;5111873;28;20249;-85
2023/03/30 08:47:21;;;;;;;7.40;7.20;;;11.90;99.90;;;;;;5111833;28;20226;-87
2023/03/30 08:49:59;;;;;;;7.13;6.93;;;12.00;99.90;;;;;;5112071;28;20221;-86
2023/03/30 08:52:27;;;;;;;7.27;7.07;;;12.00;99.90;;;;;;5108607;28;20233;-84
2023/03/30 08:55:08;;;;;;;7.20;7.00;;;12.00;99.90;;;;;;5109592;28;20245;-85
2023/03/30 08:57:52;;;;;;;7.37;7.17;;;12.00;99.90;;;;;;5109830;28;20281;-86
2023/03/30 09:00:31;;;;;;;7.20;7.00;;;12.10;99.90;;;;;;5099167;28;20268;-87
2023/03/30 09:03:10;;;;;;;7.53;7.33;;;12.10;99.90;;;;;;5109091;28;20255;-86
2023/03/30 09:05:48;;;;;;;7.60;7.40;;;12.20;99.90;;;;;;5110077;28;20224;-86
2023/03/30 09:08:20;;;;;;;7.47;7.27;;;12.20;99.90;;;;;;5110059;28;20221;-85
2023/03/30 09:10:57;;;;;;;7.57;7.37;;;12.20;99.90;;;;;;5107986;28;20316;-86
2023/03/30 09:13:33;;;;;;;7.53;7.33;;;12.30;99.90;;;;;;5108386;28;20236;-84
2023/03/30 09:16:13;;;;;;;7.30;7.10;;;12.40;99.90;;;;;;5107725;28;20244;-83
2023/03/30 09:18:51;;;;;;;6.90;6.70;;;12.50;99.90;;;;;;5085937;28;20232;-86
2023/03/30 09:21:22;;;;;;;7.07;6.87;;;12.60;99.90;;;;;;5086011;28;20296;-84
2023/03/30 09:23:50;;;;;;;7.23;7.03;;;12.70;99.90;;;;;;5095381;28;20276;-85
2023/03/30 09:26:35;;;;;;;7.40;7.20;;;12.70;99.90;;;;;;5109406;28;20218;-83
2023/03/30 09:29:14;;;;;;;7.53;7.33;;;12.70;99.90;;;;;;5108918;28;20323;-83
2023/03/30 09:31:52;;;;;;;7.60;7.40;;;12.70;99.90;;;;;;5108049;28;20274;-85
2023/03/30 09:34:30;;;;;;;7.60;7.40;;;12.60;99.90;;;;;;5109318;28;20240;-84
2023/03/30 09:37:11;;;;;;;7.63;7.43;;;12.60;99.90;;;;;;5109542;28;20229;-84
2023/03/30 09:39:40;;;;;;;7.70;7.50;;;12.50;99.90;;;;;;5110307;28;20245;-84
2023/03/30 09:42:33;;;;;;;7.40;7.20;;;12.50;99.90;;;;;;5109400;28;20239;-84
2023/03/30 09:45:13;;;;;;;7.23;7.03;;;12.50;99.90;;;;;;5106104;28;20234;-85
2023/03/30 09:47:43;;;;;;;7.33;7.13;;;12.60;99.90;;;;;;5107824;28;20269;-84
2023/03/30 09:50:19;;;;;;;7.20;7.00;;;12.70;99.90;;;;;;5108744;28;20328;-85
2023/03/30 09:53:02;;;;;;;7.30;7.10;;;12.70;99.90;;;;;;5110217;28;20255;-84
2023/03/30 09:55:32;;;;;;;7.30;7.10;;;12.70;99.90;;;;;;5111395;28;20225;-85
2023/03/30 09:58:33;;;;;;;7.30;7.10;;;12.60;99.90;;;;;;5112390;28;20253;-83
2023/03/30 10:01:13;;;;;;;7.30;7.10;;;12.60;99.90;;;;;;5110123;28;20229;-83
2023/03/30 10:03:42;;;;;;;7.27;7.07;;;12.50;99.90;;;;;;5109963;28;20244;-83
2023/03/30 10:06:12;;;;;;;7.43;7.23;;;12.40;99.90;;;;;;5110946;28;20233;-82
2023/03/30 10:11:38;;;;;;;7.20;7.00;;;12.30;99.90;;;;;;5106320;28;20235;-84
2023/03/30 10:14:26;;;;;;;6.97;6.77;;;12.40;99.90;;;;;;5106954;28;20245;-85
2023/03/30 10:16:54;;;;;;;7.20;7.00;;;12.40;99.90;;;;;;5109835;28;20256;-85
2023/03/30 10:19:23;;;;;;;7.10;6.90;;;12.40;99.90;;;;;;5109468;28;20248;-84
2023/03/30 10:21:55;;;;;;;7.00;6.80;;;12.40;99.90;;;;;;5109688;28;20237;-83
2023/03/30 10:24:30;;;;;;;7.37;7.17;;;12.50;99.90;;;;;;5108215;28;20237;-83
2023/03/30 10:27:08;;;;;;;7.40;7.20;;;12.50;99.90;;;;;;5110159;28;20251;-83
2023/03/30 10:29:47;;;;;;;7.30;7.10;;;12.50;99.90;;;;;;5110082;28;20226;-84
2023/03/30 10:32:19;;;;;;;7.30;7.10;;;12.60;99.90;;;;;;5108265;28;20332;-84
2023/03/30 10:34:52;;;;;;;7.47;7.27;;;12.60;99.90;;;;;;5109250;28;20293;-83
2023/03/30 10:37:25;;;;;;;7.57;7.37;;;12.70;99.90;;;;;;5109333;28;20248;-83
2023/03/30 10:39:55;;;;;;;7.50;7.30;;;12.80;99.90;;;;;;5111128;28;20232;-83
2023/03/30 10:45:19;;;;;;;7.20;7.00;;;12.90;99.90;;;;;;5112909;28;20237;-83
2023/03/30 10:48:03;;;;;;;7.33;7.13;;;13.00;99.90;;;;;;5114749;28;20225;-83
2023/03/30 10:50:45;;;;;;;7.30;7.10;;;13.00;99.90;;;;;;5118662;28;20248;-82
2023/03/30 10:53:30;;;;;;;7.40;7.20;;;13.10;99.90;;;;;;5120308;28;20278;-83
2023/03/30 10:56:08;;;;;;;7.63;7.43;;;13.10;99.90;;;;;;5114939;28;20236;-83
2023/03/30 10:58:55;;;;;;;7.80;7.60;;;13.10;99.90;;;;;;5113834;28;20237;-83
2023/03/30 11:01:36;;;;;;;7.80;7.60;;;13.10;99.90;;;;;;5112470;28;20347;-83
2023/03/30 11:04:11;;;;;;;7.70;7.50;;;13.20;99.90;;;;;;5112836;28;20221;-83
2023/03/30 11:06:42;;;;;;;7.80;7.60;;;13.20;99.90;;;;;;5113110;28;20228;-82
2023/03/30 11:09:20;;;;;;;7.83;7.63;;;13.30;99.90;;;;;;5112572;28;20225;-83
2023/03/30 11:11:58;;;;;;;8.00;7.80;;;13.50;99.90;;;;;;5111596;28;20241;-83
2023/03/30 11:14:36;;;;;;;7.90;7.70;;;13.50;99.90;;;;;;5109625;28;20247;-84
2023/03/30 11:17:15;;;;;;;8.10;7.90;;;13.60;99.90;;;;;;5109324;28;20229;-83
2023/03/30 11:22:40;;;;;;;8.47;8.27;;;13.70;99.90;;;;;;5111317;28;20221;-83
2023/03/30 11:25:20;;;;;;;8.90;8.70;;;13.80;99.90;;;;;;5111774;28;20271;-84
2023/03/30 11:27:57;;;;;;;9.33;9.03;;;13.80;99.90;;;;;;5112459;28;20245;-84
2023/03/30 11:33:24;;;;;;;9.38;9.07;;;14.10;99.90;;;;;;5110157;28;20228;-84
2023/03/30 11:35:57;;;;;;;9.33;9.03;;;14.10;99.90;;;;;;5111938;28;20214;-83
2023/03/30 11:38:40;;;;;;;9.20;8.90;;;14.10;99.90;;;;;;5113019;28;20233;-83
2023/03/30 11:41:16;;;;;;;9.50;9.20;;;14.00;99.90;;;;;;5111381;28;20252;-87
2023/03/30 11:43:45;;;;;;;9.55;9.25;;;14.10;99.90;;;;;;5111625;28;20239;-81
2023/03/30 11:46:24;;;;;;;9.77;9.47;;;14.00;99.90;;;;;;5112139;28;20248;-83
2023/03/30 11:49:28;;;;;;;9.67;9.37;;;14.00;99.90;;;;;;5111146;28;20260;-83
2023/03/30 11:52:11;;;;;;;9.70;9.40;;;14.00;99.90;;;;;;5110635;28;20710;-83
2023/03/30 11:55:33;;;;;;;9.45;9.15;;;14.10;99.90;;;;;;5110330;28;20233;-82
2023/03/30 11:58:17;;;;;;;9.23;8.93;;;14.10;99.90;;;;;;5067977;28;20234;-84
2023/03/30 12:00:58;;;;;;;9.40;9.10;;;14.00;99.90;;;;;;5109657;28;20241;-83
2023/03/30 12:03:45;;;;;;;9.70;9.40;;;14.00;99.90;;;;;;5108927;28;20285;-83
2023/03/30 12:06:29;;;;;;;9.70;9.40;;;14.00;99.90;;;;;;5110507;28;20328;-87
2023/03/30 12:09:25;;;;;;;9.50;9.20;;;14.10;99.90;;;;;;5111468;28;20214;-85
2023/03/30 12:12:05;;;;;;;9.70;9.40;;;14.30;99.90;;;;;;5106042;28;20234;-84
2023/03/30 12:15:02;;;;;;;9.80;9.50;;;14.20;99.90;;;;;;5110638;28;20302;-83
2023/03/30 12:17:47;;;;;;;9.60;9.30;;;14.20;99.90;;;;;;5099563;28;20240;-84
2023/03/30 12:20:42;;;;;;;9.87;9.57;;;14.20;99.90;;;;;;5109273;28;20222;-83
2023/03/30 12:23:39;;;;;;;9.60;9.30;;;14.30;99.90;;;;;;5108882;28;20240;-83
2023/03/30 12:26:25;;;;;;;9.80;9.50;;;14.50;99.90;;;;;;5111616;28;20233;-83
2023/03/30 12:29:00;;;;;;;9.65;9.35;;;14.70;99.90;;;;;;5116218;28;20232;-83
2023/03/30 12:32:08;;;;;;;9.67;9.37;;;14.80;99.90;;;;;;5117752;28;20241;-83
2023/03/30 12:34:37;;;;;;;9.50;9.20;;;14.90;99.90;;;;;;5116097;28;20221;-82
2023/03/30 12:37:08;;;;;;;9.80;9.50;;;15.00;99.90;;;;;;5117611;28;20224;-82
2023/03/30 12:39:47;;;;;;;10.00;9.70;;;15.20;99.90;;;;;;5121610;27;20233;-82
2023/03/30 12:42:26;;;;;;;9.82;9.52;;;15.40;99.90;;;;;;5120738;28;20205;-82
2023/03/30 12:45:28;;;;;;;9.77;9.48;;;15.60;99.90;;;;;;5119061;27;20256;-82
2023/03/30 12:48:22;;;;;;;9.90;9.60;;;15.90;99.90;;;;;;5112640;28;20241;-83
2023/03/30 12:51:11;;;;;;;9.88;9.57;;;16.30;99.90;;;;;;5122407;27;20222;-83
2023/03/30 12:54:08;;;;;;;9.80;9.50;;;16.40;99.90;;;;;;5121729;27;20225;-83
2023/03/30 12:57:05;;;;;;;9.65;9.35;;;16.10;99.90;;;;;;5121421;28;20214;-84
2023/03/30 13:00:25;;;;;;;9.95;9.65;;;15.70;99.90;;;;;;5118020;28;20233;-83
2023/03/30 13:03:11;;;;;;;9.70;9.40;;;15.50;99.90;;;;;;5097537;28;20256;-84
2023/03/30 13:05:43;;;;;;;9.60;9.30;;;15.40;99.90;;;;;;5110017;28;20228;-83
2023/03/30 13:08:21;;;;;;;9.90;9.60;;;15.50;99.90;;;;;;5110726;28;20339;-83
2023/03/30 13:10:49;;;;;;;9.55;9.25;;;15.70;99.90;;;;;;5111366;28;20301;-83
2023/03/30 13:13:53;;;;;;;9.80;9.50;;;15.70;99.90;;;;;;5115751;28;20236;-84
2023/03/30 13:20:15;;;;;;;9.77;9.48;;;15.70;99.90;;;;;;5112727;28;20386;-83
2023/03/30 13:23:00;;;;;;;9.80;9.50;;;15.60;99.90;;;;;;5109837;28;20229;-85
2023/03/30 13:25:38;;;;;;;9.90;9.60;;;15.50;99.90;;;;;;5103259;28;20245;-84
2023/03/30 13:28:50;;;;;;;9.63;9.32;;;15.50;99.90;;;;;;5088703;28;20226;-83
2023/03/30 13:31:46;;;;;;;9.77;9.48;;;15.40;99.90;;;;;;5104014;28;20237;-84
2023/03/30 13:34:36;;;;;;;9.88;9.57;;;15.50;99.90;;;;;;5110103;28;20289;-85
2023/03/30 13:37:21;;;;;;;10.00;9.70;;;15.60;99.90;;;;;;5111187;28;20217;-84
2023/03/30 13:39:58;;;;;;;9.80;9.50;;;15.90;99.90;;;;;;5111260;28;20247;-84
2023/03/30 13:42:46;;;;;;;10.00;9.70;;;16.20;99.90;;;;;;5112398;28;20240;-84
2023/03/30 13:45:33;;;;;;;9.60;9.30;;;16.60;99.90;;;;;;5113661;28;20235;-85
2023/03/30 13:48:19;;;;;;;9.77;9.48;;;16.70;99.90;;;;;;5112936;28;20225;-84
2023/03/30 13:50:57;;;;;;;10.00;9.70;;;16.40;99.90;;;;;;5110996;28;20536;-84
2023/03/30 13:53:31;;;;;;;9.73;9.43;;;16.20;99.90;;;;;;5111568;28;20233;-84
2023/03/30 13:55:59;;;;;;;9.68;9.38;;;16.00;99.90;;;;;;5110779;28;20248;-84